createdAt,value
2023-10-04T00:00:32.809Z,12.58
2023-10-04T00:02:59.693Z,12.59
2023-10-04T00:05:26.746Z,12.65
2023-10-04T00:07:56.723Z,12.69
2023-10-04T00:10:27.146Z,12.71
2023-10-04T00:12:54.572Z,12.66
2023-10-04T00:15:23.852Z,12.67
2023-10-04T00:17:53.526Z,12.68
2023-10-04T00:20:21.307Z,12.72
2023-10-04T00:22:48.480Z,12.73
2023-10-04T00:25:22.925Z,12.75
2023-10-04T00:27:57.573Z,12.21
2023-10-04T00:30:31.577Z,12.62
2023-10-04T00:33:00.220Z,12.55
2023-10-04T00:35:27.146Z,12.80
2023-10-04T00:37:58.424Z,12.89
2023-10-04T00:40:29.289Z,12.67
2023-10-04T00:43:02.561Z,12.77
2023-10-04T00:45:33.867Z,12.95
2023-10-04T00:48:06.469Z,12.86
2023-10-04T00:50:33.865Z,12.53
2023-10-04T00:53:04.887Z,12.72
2023-10-04T00:55:33.648Z,12.65
2023-10-04T00:58:02.474Z,12.75
2023-10-04T01:00:30.557Z,12.66
2023-10-04T01:02:57.538Z,12.71
2023-10-04T01:05:27.046Z,12.61
2023-10-04T01:07:55.020Z,12.60
2023-10-04T01:10:25.732Z,12.77
2023-10-04T01:12:53.659Z,12.69
2023-10-04T01:15:33.741Z,12.71
2023-10-04T01:18:02.422Z,12.53
2023-10-04T01:20:29.555Z,12.72
2023-10-04T01:23:02.765Z,12.55
2023-10-04T01:25:30.642Z,12.56
2023-10-04T01:27:57.252Z,12.48
2023-10-04T01:30:24.326Z,12.62
2023-10-04T01:32:55.314Z,12.55
2023-10-04T01:35:26.002Z,12.27
2023-10-04T01:37:55.551Z,12.59
2023-10-04T01:40:26.614Z,12.67
2023-10-04T01:42:56.586Z,12.59
2023-10-04T01:45:24.073Z,12.56
2023-10-04T01:47:51.909Z,12.52
2023-10-04T01:50:19.465Z,12.65
2023-10-04T01:52:49.972Z,12.54
2023-10-04T01:55:18.952Z,12.38
2023-10-04T01:57:47.184Z,12.22
2023-10-04T02:00:19.983Z,12.53
2023-10-04T02:02:48.383Z,12.54
2023-10-04T02:05:20.617Z,12.49
2023-10-04T02:07:47.454Z,12.52
2023-10-04T02:10:19.283Z,12.66
2023-10-04T02:12:46.584Z,12.54
2023-10-04T02:15:16.490Z,12.36
2023-10-04T02:17:45.433Z,12.63
2023-10-04T02:20:29.502Z,12.39
2023-10-04T02:22:57.333Z,12.33
2023-10-04T02:25:24.097Z,12.62
2023-10-04T02:27:50.837Z,12.44
2023-10-04T02:30:23.380Z,12.53
2023-10-04T02:32:54.664Z,12.57
2023-10-04T02:35:35.669Z,12.42
2023-10-04T02:38:11.281Z,12.58
2023-10-04T02:40:39.167Z,12.43
2023-10-04T02:43:08.481Z,12.59
2023-10-04T02:45:38.520Z,12.51
2023-10-04T02:48:06.497Z,12.62
2023-10-04T02:50:33.714Z,12.66
2023-10-04T02:53:01.414Z,12.80
2023-10-04T02:55:28.338Z,12.80
2023-10-04T02:57:56.862Z,12.64
2023-10-04T03:00:24.675Z,12.72
2023-10-04T03:02:54.112Z,12.60
2023-10-04T03:05:22.114Z,12.28
2023-10-04T03:07:51.719Z,12.55
2023-10-04T03:10:26.117Z,12.50
2023-10-04T03:12:54.460Z,12.54
2023-10-04T03:15:25.489Z,12.56
2023-10-04T03:17:54.925Z,12.53
2023-10-04T03:20:24.574Z,12.56
2023-10-04T03:22:53.081Z,12.29
2023-10-04T03:25:21.818Z,12.40
2023-10-04T03:27:49.190Z,12.50
2023-10-04T03:30:16.215Z,12.44
2023-10-04T03:32:45.402Z,12.39
2023-10-04T03:35:15.778Z,12.48
2023-10-04T03:38:05.524Z,12.43
2023-10-04T03:40:38.566Z,12.44
2023-10-04T03:43:07.254Z,12.48
2023-10-04T03:45:36.256Z,12.35
2023-10-04T03:48:06.846Z,12.31
2023-10-04T03:50:33.643Z,12.31
2023-10-04T03:53:00.227Z,12.31
2023-10-04T03:55:27.489Z,12.43
2023-10-04T03:57:57.168Z,12.46
2023-10-04T04:00:25.067Z,12.40
2023-10-04T04:02:53.063Z,12.14
2023-10-04T04:05:24.275Z,12.13
2023-10-04T04:07:53.060Z,12.44
2023-10-04T04:10:21.407Z,12.33
2023-10-04T04:12:48.244Z,12.01
2023-10-04T04:15:16.355Z,12.35
2023-10-04T04:17:45.061Z,12.26
2023-10-04T04:20:20.909Z,12.43
2023-10-04T04:22:55.054Z,12.39
2023-10-04T04:25:22.903Z,12.22
2023-10-04T04:27:53.792Z,11.99
2023-10-04T04:30:29.826Z,12.27
2023-10-04T04:32:59.678Z,12.38
2023-10-04T04:35:36.548Z,12.22
2023-10-04T04:38:23.706Z,12.14
2023-10-04T04:40:54.199Z,12.35
2023-10-04T04:43:21.902Z,12.24
2023-10-04T04:45:53.066Z,12.36
2023-10-04T04:48:25.117Z,12.39
2023-10-04T04:50:57.152Z,12.38
2023-10-04T04:53:24.298Z,12.46
2023-10-04T04:55:52.253Z,12.50
2023-10-04T04:58:24.284Z,12.33
2023-10-04T05:00:51.805Z,12.36
2023-10-04T05:03:20.200Z,12.39
2023-10-04T05:05:50.899Z,11.95
2023-10-04T05:08:18.996Z,12.20
2023-10-04T05:10:46.836Z,12.33
2023-10-04T05:13:14.869Z,12.30
2023-10-04T05:15:43.933Z,12.09
2023-10-04T05:18:17.622Z,12.32
2023-10-04T05:20:54.277Z,12.34
2023-10-04T05:23:23.222Z,12.20
2023-10-04T05:25:50.979Z,12.21
2023-10-04T05:28:18.353Z,11.98
2023-10-04T05:30:47.294Z,11.71
2023-10-04T05:33:15.496Z,12.19
2023-10-04T05:35:44.111Z,12.29
2023-10-04T05:38:15.499Z,12.13
2023-10-04T05:40:47.885Z,12.39
2023-10-04T05:43:16.363Z,12.14
2023-10-04T05:45:44.883Z,12.36
2023-10-04T05:48:13.863Z,12.36
2023-10-04T05:50:41.187Z,12.34
2023-10-04T05:53:10.029Z,12.41
2023-10-04T05:55:38.540Z,12.28
2023-10-04T05:58:09.322Z,12.46
2023-10-04T06:00:43.724Z,12.39
2023-10-04T06:03:14.168Z,12.23
2023-10-04T06:05:42.665Z,12.17
2023-10-04T06:08:19.503Z,12.48
2023-10-04T06:10:49.068Z,12.49
2023-10-04T06:13:18.692Z,12.45
2023-10-04T06:15:51.001Z,12.46
2023-10-04T06:18:18.213Z,12.38
2023-10-04T06:20:45.413Z,12.09
2023-10-04T06:23:15.961Z,12.46
2023-10-04T06:25:52.891Z,12.52
2023-10-04T06:28:21.407Z,12.73
2023-10-04T06:30:50.289Z,12.58
2023-10-04T06:33:17.917Z,12.78
2023-10-04T06:35:45.101Z,12.34
2023-10-04T06:38:14.426Z,12.52
2023-10-04T06:40:42.413Z,12.57
2023-10-04T06:43:10.109Z,12.62
2023-10-04T06:45:38.335Z,12.43
2023-10-04T06:48:05.956Z,12.77
2023-10-04T06:50:37.372Z,12.81
2023-10-04T06:53:05.628Z,12.92
2023-10-04T06:55:33.957Z,12.85
2023-10-04T06:58:02.209Z,13.15
2023-10-04T07:00:38.176Z,13.15
2023-10-04T07:03:06.544Z,13.21
2023-10-04T07:05:38.593Z,13.25
2023-10-04T07:08:07.428Z,13.42
2023-10-04T07:10:36.249Z,13.20
2023-10-04T07:13:04.776Z,13.38
2023-10-04T07:15:37.906Z,13.44
2023-10-04T07:18:09.318Z,13.25
2023-10-04T07:20:44.831Z,13.28
2023-10-04T07:23:12.545Z,13.21
2023-10-04T07:25:43.183Z,13.32
2023-10-04T07:28:13.141Z,12.99
2023-10-04T07:30:41.521Z,13.31
2023-10-04T07:33:10.641Z,13.57
2023-10-04T07:35:38.590Z,13.36
2023-10-04T07:38:07.486Z,13.58
2023-10-04T07:40:35.442Z,13.53
2023-10-04T07:43:03.601Z,13.56
2023-10-04T07:45:33.139Z,13.38
2023-10-04T07:48:00.686Z,13.75
2023-10-04T07:50:30.670Z,13.68
2023-10-04T07:53:00.469Z,13.68
2023-10-04T07:55:29.180Z,13.71
2023-10-04T07:58:07.719Z,13.93
2023-10-04T08:00:38.353Z,13.95
2023-10-04T08:03:05.955Z,13.98
2023-10-04T08:05:34.068Z,14.00
2023-10-04T08:08:04.796Z,13.97
2023-10-04T08:10:34.636Z,14.07
2023-10-04T08:13:03.004Z,14.08
2023-10-04T08:15:32.072Z,13.90
2023-10-04T08:18:00.589Z,14.02
2023-10-04T08:20:35.098Z,13.76
2023-10-04T08:23:04.289Z,14.06
2023-10-04T08:25:33.576Z,14.01
2023-10-04T08:28:01.678Z,13.83
2023-10-04T08:30:28.793Z,14.14
2023-10-04T08:32:55.645Z,14.15
2023-10-04T08:35:34.895Z,14.31
2023-10-04T08:38:05.505Z,14.27
2023-10-04T08:40:33.384Z,14.38
2023-10-04T08:43:00.339Z,14.58
2023-10-04T08:45:31.567Z,14.92
2023-10-04T08:47:59.351Z,15.09
2023-10-04T08:50:43.027Z,14.94
2023-10-04T08:53:22.044Z,14.98
2023-10-04T08:55:55.047Z,15.37
2023-10-04T08:58:21.705Z,15.16
2023-10-04T09:00:51.997Z,15.40
2023-10-04T09:03:23.012Z,15.57
2023-10-04T09:05:53.672Z,15.49
2023-10-04T09:08:20.446Z,15.55
2023-10-04T09:10:48.198Z,15.53
2023-10-04T09:13:15.287Z,15.46
2023-10-04T09:15:42.570Z,15.67
2023-10-04T09:18:10.536Z,15.67
2023-10-04T09:20:38.485Z,15.76
2023-10-04T09:23:21.415Z,15.51
2023-10-04T09:25:48.618Z,15.74
2023-10-04T09:28:15.835Z,15.91
2023-10-04T09:30:43.332Z,16.00
2023-10-04T09:33:25.127Z,15.99
2023-10-04T09:35:52.757Z,16.08
2023-10-04T09:38:21.910Z,16.26
2023-10-04T09:41:01.001Z,16.44
2023-10-04T09:43:34.009Z,16.67
2023-10-04T09:46:00.744Z,16.82
2023-10-04T09:48:35.280Z,18.32
2023-10-04T09:51:03.456Z,19.42
2023-10-04T09:53:32.934Z,20.30
2023-10-04T09:56:03.511Z,20.71
2023-10-04T09:58:32.089Z,20.16
2023-10-04T10:01:13.143Z,19.07
2023-10-04T10:03:58.377Z,17.79
2023-10-04T10:06:28.891Z,17.69
2023-10-04T10:09:06.610Z,17.04
2023-10-04T10:11:34.323Z,17.06
2023-10-04T10:14:05.878Z,17.37
2023-10-04T10:16:35.345Z,17.50
2023-10-04T10:19:04.673Z,17.35
2023-10-04T10:22:11.762Z,17.53
2023-10-04T10:24:50.472Z,17.49
2023-10-04T10:27:21.190Z,17.31
2023-10-04T10:29:49.455Z,17.50
2023-10-04T10:32:24.307Z,17.46
2023-10-04T10:34:52.918Z,17.28
2023-10-04T10:37:24.159Z,17.21
2023-10-04T10:39:57.375Z,17.51
2023-10-04T10:42:25.162Z,17.66
2023-10-04T10:45:12.191Z,17.66
2023-10-04T10:47:53.570Z,17.71
2023-10-04T10:50:39.088Z,17.66
2023-10-04T10:53:12.024Z,17.61
2023-10-04T10:55:42.540Z,17.73
2023-10-04T10:58:09.469Z,17.11
2023-10-04T11:00:37.128Z,17.07
2023-10-04T11:03:10.955Z,17.57
2023-10-04T11:05:38.293Z,17.18
2023-10-04T11:08:09.534Z,17.17
2023-10-04T11:10:37.729Z,17.32
2023-10-04T11:13:09.922Z,17.05
2023-10-04T11:15:37.993Z,17.60
2023-10-04T11:18:08.005Z,17.45
2023-10-04T11:20:38.698Z,16.95
2023-10-04T11:23:07.374Z,17.21
2023-10-04T11:25:34.282Z,17.23
2023-10-04T11:28:01.167Z,16.94
2023-10-04T11:30:30.032Z,17.20
2023-10-04T11:32:57.839Z,17.54
2023-10-04T11:35:33.691Z,18.60
2023-10-04T11:38:06.675Z,19.15
2023-10-04T11:40:33.809Z,18.22
2023-10-04T11:43:02.993Z,18.27
2023-10-04T11:45:31.335Z,18.03
2023-10-04T11:48:03.781Z,17.53
2023-10-04T11:50:53.583Z,17.89
2023-10-04T11:53:35.722Z,18.04
2023-10-04T11:56:08.209Z,18.22
2023-10-04T11:58:52.377Z,17.71
2023-10-04T12:01:23.819Z,18.16
2023-10-04T12:03:52.823Z,18.37
2023-10-04T12:06:31.804Z,18.01
2023-10-04T12:09:00.251Z,18.27
2023-10-04T12:11:29.094Z,18.54
2023-10-04T12:13:58.894Z,18.75
2023-10-04T12:16:26.996Z,18.61
2023-10-04T12:18:53.679Z,18.44
2023-10-04T12:21:20.412Z,18.32
2023-10-04T12:23:47.229Z,17.97
2023-10-04T12:26:16.846Z,18.04
2023-10-04T12:28:43.702Z,17.56
2023-10-04T12:31:11.512Z,18.10
2023-10-04T12:33:40.303Z,18.29
2023-10-04T12:36:07.323Z,18.08
2023-10-04T12:38:35.067Z,18.55
2023-10-04T12:41:04.670Z,18.67
2023-10-04T12:43:31.540Z,18.63
2023-10-04T12:45:58.605Z,18.01
2023-10-04T12:48:25.592Z,18.24
2023-10-04T12:50:52.772Z,17.65
2023-10-04T12:53:19.854Z,18.02
2023-10-04T12:55:48.425Z,17.72
2023-10-04T12:58:16.105Z,17.72
2023-10-04T13:00:43.473Z,17.48
2023-10-04T13:03:10.638Z,17.45
2023-10-04T13:05:43.140Z,17.32
2023-10-04T13:08:16.489Z,17.45
2023-10-04T13:10:43.884Z,17.41
2023-10-04T13:13:13.498Z,17.36
2023-10-04T13:15:40.821Z,16.92
2023-10-04T13:18:12.907Z,17.17
2023-10-04T13:20:39.911Z,17.31
2023-10-04T13:23:09.845Z,17.56
2023-10-04T13:25:37.560Z,17.47
2023-10-04T13:28:06.973Z,17.52
2023-10-04T13:30:34.838Z,17.42
2023-10-04T13:33:02.311Z,17.07
2023-10-04T13:35:30.160Z,17.58
2023-10-04T13:37:57.341Z,17.81
2023-10-04T13:40:24.167Z,18.21
2023-10-04T13:42:58.514Z,18.23
2023-10-04T13:45:26.009Z,17.98
2023-10-04T13:47:53.544Z,18.09
2023-10-04T13:50:25.416Z,18.20
2023-10-04T13:52:52.571Z,18.26
2023-10-04T13:55:23.114Z,17.79
2023-10-04T13:57:49.909Z,17.56
2023-10-04T14:00:24.161Z,17.54
2023-10-04T14:02:56.949Z,17.33
2023-10-04T14:05:24.389Z,17.45
2023-10-04T14:07:55.799Z,17.41
2023-10-04T14:10:24.922Z,16.99
2023-10-04T14:12:57.065Z,17.05
2023-10-04T14:15:26.451Z,17.06
2023-10-04T14:17:55.561Z,17.00
2023-10-04T14:20:22.849Z,17.04
2023-10-04T14:22:52.373Z,17.30
2023-10-04T14:25:20.801Z,17.27
2023-10-04T14:27:47.683Z,17.37
2023-10-04T14:30:19.400Z,16.84
2023-10-04T14:32:50.975Z,16.94
2023-10-04T14:35:18.279Z,16.98
2023-10-04T14:37:45.252Z,17.05
2023-10-04T14:40:15.593Z,17.00
2023-10-04T14:42:42.482Z,16.62
2023-10-04T14:45:10.196Z,16.67
2023-10-04T14:47:37.700Z,16.49
2023-10-04T14:50:05.428Z,16.68
2023-10-04T14:52:32.553Z,16.62
2023-10-04T14:55:02.050Z,16.49
2023-10-04T14:57:29.750Z,16.81
2023-10-04T14:59:56.452Z,16.76
2023-10-04T15:02:23.072Z,16.34
2023-10-04T15:04:50.399Z,16.13
2023-10-04T15:07:17.112Z,16.47
2023-10-04T15:09:43.877Z,16.50
2023-10-04T15:12:10.987Z,16.38
2023-10-04T15:14:37.750Z,16.56
2023-10-04T15:17:05.026Z,16.11
2023-10-04T15:19:32.138Z,16.21
2023-10-04T15:21:58.919Z,16.25
2023-10-04T15:24:26.497Z,16.34
2023-10-04T15:26:53.240Z,16.50
2023-10-04T15:29:23.223Z,16.45
2023-10-04T15:31:49.904Z,16.11
2023-10-04T15:34:16.608Z,16.38
2023-10-04T15:36:44.836Z,16.53
2023-10-04T15:39:28.536Z,16.13
2023-10-04T15:41:56.836Z,16.02
2023-10-04T15:44:24.114Z,16.28
2023-10-04T15:46:50.861Z,16.43
2023-10-04T15:49:17.612Z,16.06
2023-10-04T15:51:45.077Z,15.99
2023-10-04T15:54:13.449Z,16.19
2023-10-04T15:56:40.187Z,15.76
2023-10-04T15:59:08.928Z,15.85
2023-10-04T16:01:36.818Z,15.83
2023-10-04T16:04:04.407Z,15.91
2023-10-04T16:06:32.630Z,15.63
2023-10-04T16:09:02.661Z,15.86
2023-10-04T16:11:29.525Z,15.83
2023-10-04T16:13:56.173Z,15.88
2023-10-04T16:16:23.169Z,15.66
2023-10-04T16:18:49.966Z,15.83
2023-10-04T16:21:21.281Z,15.64
2023-10-04T16:23:48.129Z,15.63
2023-10-04T16:26:17.752Z,14.21
2023-10-04T16:28:44.599Z,15.69
2023-10-04T16:31:11.844Z,15.38
2023-10-04T16:33:38.777Z,15.62
2023-10-04T16:36:05.719Z,15.77
2023-10-04T16:38:32.749Z,15.43
2023-10-04T16:40:59.653Z,15.82
2023-10-04T16:43:26.738Z,15.81
2023-10-04T16:45:56.526Z,15.51
2023-10-04T16:48:24.244Z,15.62
2023-10-04T16:50:50.929Z,15.69
2023-10-04T16:53:18.034Z,15.56
2023-10-04T16:55:45.151Z,15.76
2023-10-04T16:58:12.365Z,15.60
2023-10-04T17:00:39.236Z,15.78
2023-10-04T17:03:05.941Z,15.32
2023-10-04T17:05:33.253Z,15.70
2023-10-04T17:08:01.098Z,15.53
2023-10-04T17:10:28.577Z,15.57
2023-10-04T17:12:55.421Z,15.53
2023-10-04T17:15:24.618Z,15.37
2023-10-04T17:17:51.270Z,15.58
2023-10-04T17:20:18.106Z,15.32
2023-10-04T17:22:48.342Z,15.25
2023-10-04T17:25:15.829Z,15.42
2023-10-04T17:27:42.892Z,15.23
2023-10-04T17:30:17.999Z,15.46
2023-10-04T17:32:46.764Z,15.39
2023-10-04T17:35:15.024Z,15.12
2023-10-04T17:37:42.382Z,15.43
2023-10-04T17:40:14.921Z,15.37
2023-10-04T17:42:45.155Z,15.56
2023-10-04T17:45:12.663Z,15.22
2023-10-04T17:47:39.884Z,15.27
2023-10-04T17:50:07.669Z,15.18
2023-10-04T17:52:34.710Z,14.60
2023-10-04T17:55:01.535Z,15.31
2023-10-04T17:57:28.282Z,15.27
2023-10-04T17:59:55.058Z,14.93
2023-10-04T18:02:22.358Z,15.19
2023-10-04T18:04:49.081Z,15.16
2023-10-04T18:07:15.886Z,15.03
2023-10-04T18:09:42.553Z,15.12
2023-10-04T18:12:09.683Z,14.69
2023-10-04T18:14:36.335Z,14.96
2023-10-04T18:17:03.940Z,14.54
2023-10-04T18:19:32.193Z,15.14
2023-10-04T18:21:59.044Z,15.05
2023-10-04T18:24:26.234Z,14.89
2023-10-04T18:26:52.947Z,15.14
2023-10-04T18:29:19.555Z,15.07
2023-10-04T18:31:46.314Z,15.02
2023-10-04T18:34:13.146Z,14.71
2023-10-04T18:36:43.487Z,14.47
2023-10-04T18:39:11.224Z,14.73
2023-10-04T18:41:37.903Z,14.84
2023-10-04T18:44:05.516Z,14.96
2023-10-04T18:46:37.753Z,14.56
2023-10-04T18:49:05.830Z,14.75
2023-10-04T18:51:33.118Z,14.82
2023-10-04T18:54:00.162Z,14.74
2023-10-04T18:56:27.208Z,14.96
2023-10-04T18:58:54.208Z,14.60
2023-10-04T19:01:20.976Z,14.57
2023-10-04T19:03:48.724Z,14.37
2023-10-04T19:06:15.717Z,14.65
2023-10-04T19:08:42.455Z,14.37
2023-10-04T19:11:10.863Z,14.52
2023-10-04T19:13:38.891Z,13.79
2023-10-04T19:16:06.944Z,14.64
2023-10-04T19:18:34.205Z,14.68
2023-10-04T19:21:01.472Z,14.59
2023-10-04T19:23:28.343Z,14.68
2023-10-04T19:25:55.026Z,14.60
2023-10-04T19:28:22.386Z,14.52
2023-10-04T19:30:50.884Z,14.62
2023-10-04T19:33:17.643Z,14.32
2023-10-04T19:35:44.804Z,14.36
2023-10-04T19:38:13.436Z,14.30
2023-10-04T19:40:40.243Z,14.24
2023-10-04T19:43:06.866Z,14.53
2023-10-04T19:45:35.081Z,14.39
2023-10-04T19:48:05.524Z,14.38
2023-10-04T19:50:32.256Z,14.61
2023-10-04T19:52:59.239Z,14.65
2023-10-04T19:55:25.994Z,14.51
2023-10-04T19:57:53.065Z,14.47
2023-10-04T20:00:20.293Z,14.18
2023-10-04T20:02:49.514Z,14.54
2023-10-04T20:05:16.547Z,14.56
2023-10-04T20:07:43.313Z,14.53
2023-10-04T20:10:13.484Z,14.44
2023-10-04T20:12:40.890Z,14.41
2023-10-04T20:15:15.121Z,14.20
2023-10-04T20:17:42.716Z,14.21
2023-10-04T20:20:18.772Z,14.42
2023-10-04T20:22:46.505Z,14.38
2023-10-04T20:25:16.659Z,14.33
2023-10-04T20:27:43.551Z,14.03
2023-10-04T20:30:11.193Z,13.28
2023-10-04T20:32:38.109Z,14.10
2023-10-04T20:35:07.560Z,14.19
2023-10-04T20:37:34.985Z,13.78
2023-10-04T20:40:11.130Z,13.84
2023-10-04T20:42:38.551Z,14.18
2023-10-04T20:45:05.865Z,13.94
2023-10-04T20:47:32.964Z,13.95
2023-10-04T20:49:59.838Z,13.85
2023-10-04T20:52:26.484Z,14.10
2023-10-04T20:54:53.205Z,13.90
2023-10-04T20:57:21.833Z,13.95
2023-10-04T20:59:49.083Z,13.81
2023-10-04T21:02:19.268Z,14.05
2023-10-04T21:04:45.967Z,13.61
2023-10-04T21:07:12.863Z,14.02
2023-10-04T21:09:40.590Z,14.07
2023-10-04T21:12:08.923Z,13.98
2023-10-04T21:14:35.904Z,13.83
2023-10-04T21:17:02.551Z,13.68
2023-10-04T21:19:32.713Z,14.03
2023-10-04T21:22:00.112Z,14.03
2023-10-04T21:24:27.122Z,13.60
2023-10-04T21:26:55.160Z,13.93
2023-10-04T21:29:21.924Z,13.92
2023-10-04T21:31:51.268Z,13.99
2023-10-04T21:34:19.815Z,13.96
2023-10-04T21:36:49.400Z,13.83
2023-10-04T21:39:25.760Z,13.75
2023-10-04T21:41:56.672Z,13.66
2023-10-04T21:44:37.650Z,14.08
2023-10-04T21:47:10.594Z,13.96
2023-10-04T21:49:39.415Z,13.65
2023-10-04T21:52:11.602Z,13.86
2023-10-04T21:54:38.706Z,14.01
2023-10-04T21:57:06.638Z,14.09
2023-10-04T21:59:36.516Z,13.89
2023-10-04T22:02:04.212Z,13.31
2023-10-04T22:04:32.191Z,13.65
2023-10-04T22:07:14.385Z,13.69
2023-10-04T22:09:50.400Z,13.68
2023-10-04T22:12:17.948Z,13.72
2023-10-04T22:14:45.279Z,13.01
2023-10-04T22:17:13.961Z,13.72
2023-10-04T22:19:40.904Z,13.40
2023-10-04T22:22:11.833Z,13.43
2023-10-04T22:24:50.285Z,13.86
2023-10-04T22:27:26.968Z,13.76
2023-10-04T22:29:57.332Z,13.65
2023-10-04T22:32:24.831Z,13.63
2023-10-04T22:34:53.520Z,13.66
2023-10-04T22:37:20.612Z,13.57
2023-10-04T22:39:47.462Z,13.74
2023-10-04T22:42:15.544Z,13.71
2023-10-04T22:44:42.240Z,13.67
2023-10-04T22:47:12.689Z,13.51
2023-10-04T22:49:39.362Z,13.68
2023-10-04T22:52:06.022Z,13.74
2023-10-04T22:54:33.092Z,13.55
2023-10-04T22:57:01.299Z,13.75
2023-10-04T22:59:28.051Z,13.71
2023-10-04T23:01:56.414Z,13.52
2023-10-04T23:04:23.345Z,13.48
2023-10-04T23:06:50.938Z,13.60
2023-10-04T23:09:18.606Z,13.51
2023-10-04T23:11:47.103Z,13.82
2023-10-04T23:14:14.275Z,13.89
2023-10-04T23:16:44.678Z,13.78
2023-10-04T23:19:18.370Z,13.76
2023-10-04T23:21:50.853Z,13.56
2023-10-04T23:24:17.830Z,13.33
2023-10-04T23:26:45.760Z,13.63
2023-10-04T23:29:14.684Z,13.39
2023-10-04T23:31:43.699Z,13.44
2023-10-04T23:34:10.899Z,13.30
2023-10-04T23:36:41.620Z,13.30
2023-10-04T23:39:09.763Z,13.77
2023-10-04T23:41:38.069Z,13.61
2023-10-04T23:44:11.761Z,13.41
2023-10-04T23:46:38.896Z,13.81
2023-10-04T23:49:19.114Z,13.57
2023-10-04T23:51:49.259Z,13.83
2023-10-04T23:54:22.309Z,13.47
2023-10-04T23:56:55.439Z,13.62
2023-10-04T23:59:23.208Z,13.79
